Croweburg, Kansas
Current Conditions -  °F | °C
As of 10:35 AM on Monday 24 Nov 2014 (Local Time) from KPTS Reporting Station
Clear Clear  
Wind Chill: 38°   Ceiling: Unl
Heat Index: 45°   Visibility: 10mi
Dew Point: 30°   Wind: 14mph
Humidity: 57%   Direction: 280°W
Pressure: 29.83"   Gusts: 18mph
Location:  37.5542°N, 94.6826°W
Report Text: KPTS 241635Z AUTO 28012G16KT 10SM CLR 07/M01 A2983 RMK AO2 T00701011
Loading
Personal Weather Stations






























Interactive Weather Map New forecast layout! Learn more

10-Day Weather Forecast

Advertisements
Track Severe Weather on mobile